Time;durP1;ratioP1;P1;durP2;ratioP2;P2;SDS_P1;SDS_P2;PMS_P1;PMS_P2;Temp;Humidity;BMP_temperature;BMP_pressure;BME280_temperature;BME280_humidity;BME280_pressure;Samples;Min_cycle;Max_cycle;Signal;HPM_P1;HPM_P2
2023/10/09 07:07:20;;;;;;;0.43;0.43;;;16.50;99.90;20.80;101783.00;;;;6314844;22;20146;-73
2023/10/09 07:12:42;;;;;;;0.73;0.73;;;17.00;99.90;19.20;101784.00;;;;6340470;22;20186;-72
2023/10/09 07:18:18;;;;;;;0.73;0.73;;;16.70;99.90;19.10;101801.00;;;;6313291;22;20155;-72
2023/10/09 07:21:12;;;;;;;5.87;2.23;;;16.90;99.90;19.10;101789.00;;;;6312452;22;20238;-72
2023/10/09 07:24:13;;;;;;;2.50;1.67;;;16.90;99.90;19.30;101803.00;;;;6315997;22;20184;-72
2023/10/09 07:26:47;;;;;;;5.17;4.53;;;17.00;99.90;19.00;101807.00;;;;6289428;22;20241;-72
2023/10/09 07:29:43;;;;;;;2.63;2.40;;;16.90;99.90;19.70;101773.00;;;;6312186;22;20481;-72
2023/10/09 07:32:12;;;;;;;2.30;2.10;;;17.20;99.90;19.30;101811.00;;;;6315501;22;20218;-72
2023/10/09 07:34:57;;;;;;;7.43;6.60;;;17.00;99.90;19.20;101799.00;;;;6287855;22;20201;-72
2023/10/09 07:37:30;;;;;;;4.97;3.50;;;17.00;99.90;19.60;101805.00;;;;6312191;22;20161;-74
2023/10/09 07:39:57;;;;;;;7.17;5.67;;;17.10;99.90;19.30;101813.00;;;;6314177;22;20166;-74
2023/10/09 07:42:43;;;;;;;5.00;4.50;;;17.20;99.90;19.10;101803.00;;;;6287003;22;20180;-73
2023/10/09 07:50:37;;;;;;;1.90;1.80;;;17.20;99.90;20.00;101826.00;;;;6314703;22;20199;-74
2023/10/09 07:56:06;;;;;;;0.80;0.80;;;17.30;99.90;19.60;101816.00;;;;6316871;22;20149;-73
2023/10/09 07:59:00;;;;;;;1.30;1.13;;;17.20;99.90;19.80;101817.00;;;;6289448;22;20156;-73
2023/10/09 08:02:02;;;;;;;1.27;1.17;;;17.30;99.90;19.80;101809.00;;;;6312409;22;20194;-72
2023/10/09 08:04:37;;;;;;;0.23;0.23;;;17.40;99.90;21.00;101819.00;;;;6336473;22;20164;-72
2023/10/09 08:07:34;;;;;;;0.47;0.47;;;17.60;99.90;20.50;101817.00;;;;6311768;22;20144;-71
2023/10/09 08:15:26;;;;;;;4.03;3.27;;;18.10;99.90;21.90;101838.00;;;;6338144;22;20182;-69
2023/10/09 08:18:44;;;;;;;2.70;2.50;;;18.70;99.90;21.70;101853.00;;;;6311410;22;20158;-69
2023/10/09 08:21:43;;;;;;;2.35;2.25;;;18.60;99.90;21.80;101859.00;;;;6296841;22;20143;-69
2023/10/09 08:24:55;;;;;;;8.03;7.20;;;18.70;99.90;21.30;101836.00;;;;6293414;22;20155;-69
2023/10/09 08:27:54;;;;;;;2.70;1.37;;;18.70;99.90;21.30;101870.00;;;;6292767;22;20155;-69
2023/10/09 08:30:29;;;;;;;7.30;4.90;;;18.40;99.90;20.60;101859.00;;;;6339700;22;20156;-69
2023/10/09 08:33:04;;;;;;;11.17;5.43;;;18.20;99.90;19.80;101846.00;;;;6312197;22;20563;-68
2023/10/09 08:36:22;;;;;;;1.67;1.57;;;18.00;99.90;20.00;101846.00;;;;6313316;22;20135;-69
2023/10/09 08:38:23;;;;;;;10.87;7.07;;;17.90;99.90;20.30;101840.00;;;;6322636;22;20216;-69
2023/10/09 08:41:17;;;;;;;1.03;1.03;;;18.00;99.90;21.10;101851.00;;;;6312192;22;20202;-69
2023/10/09 08:43:52;;;;;;;2.22;2.08;;;18.40;99.90;21.70;101823.00;;;;6287211;22;20674;-69
2023/10/09 08:50:30;;;;;;;7.50;4.67;;;18.50;99.90;20.60;101839.00;;;;6322539;22;20591;-69
2023/10/09 08:53:04;;;;;;;6.95;6.35;;;18.40;99.90;21.00;101856.00;;;;6287575;22;20167;-68
2023/10/09 08:55:46;;;;;;;3.23;2.37;;;18.50;99.90;22.10;101883.00;;;;6339557;22;20144;-69
2023/10/09 08:58:37;;;;;;;5.82;3.70;;;18.90;99.90;21.70;101880.00;;;;6311616;22;20166;-69
2023/10/09 09:01:05;;;;;;;4.63;4.22;;;19.00;99.90;21.80;101870.00;;;;6339715;22;20166;-69
2023/10/09 09:03:40;;;;;;;5.00;4.32;;;19.10;99.90;22.50;101853.00;;;;6286171;22;20613;-69
2023/10/09 09:06:11;;;;;;;9.80;5.68;;;19.20;99.90;22.30;101859.00;;;;6311251;22;20139;-69
2023/10/09 09:08:40;;;;;;;0.60;0.57;;;19.50;99.90;22.40;101855.00;;;;6285229;22;20159;-69
2023/10/09 09:11:23;;;;;;;8.23;4.75;;;19.40;99.90;21.00;101875.00;;;;6312012;22;20584;-69
2023/10/09 09:14:07;;;;;;;3.13;2.75;;;19.10;99.90;21.10;101878.00;;;;6313799;22;20149;-69
2023/10/09 09:16:36;;;;;;;7.68;5.60;;;19.00;99.90;21.60;101845.00;;;;6312030;22;20220;-69
2023/10/09 09:21:42;;;;;;;11.98;4.38;;;19.60;99.90;22.40;101876.00;;;;6312418;22;20159;-69
2023/10/09 09:26:46;;;;;;;7.80;6.20;;;20.10;99.90;23.40;101891.00;;;;6312415;22;20140;-67
2023/10/09 09:29:23;;;;;;;2.50;2.40;;;20.40;99.90;23.50;101876.00;;;;6339608;22;20204;-69
2023/10/09 09:32:20;;;;;;;0.47;0.47;;;20.10;99.90;22.30;101872.00;;;;6311199;22;20144;-69
2023/10/09 09:34:56;;;;;;;0.10;0.10;;;20.00;99.90;23.40;101881.00;;;;6311957;22;20151;-69
2023/10/09 09:40:30;;;;;;;13.07;8.13;;;21.00;99.90;24.50;101895.00;;;;6338768;22;20155;-67
2023/10/09 09:43:11;;;;;;;14.35;4.00;;;21.30;99.90;24.50;101880.00;;;;6315587;22;20244;-69
2023/10/09 09:45:48;;;;;;;0.10;0.10;;;21.10;99.90;25.10;101886.00;;;;6313111;22;20136;-69
2023/10/09 09:48:16;;;;;;;6.75;5.00;;;21.40;99.90;24.50;101894.00;;;;6286916;22;20166;-69
2023/10/09 09:50:46;;;;;;;5.63;3.25;;;21.40;99.90;22.80;101865.00;;;;6310917;22;20209;-68
2023/10/09 09:53:18;;;;;;;0.47;0.47;;;20.80;99.90;23.50;101876.00;;;;6308549;22;20186;-68
2023/10/09 09:55:55;;;;;;;0.60;0.60;;;20.40;99.90;25.20;101894.00;;;;6309086;22;20554;-67
2023/10/09 09:58:23;;;;;;;10.18;7.50;;;21.10;99.90;24.70;101899.00;;;;6311066;22;20143;-67
2023/10/09 10:01:25;;;;;;;3.83;2.78;;;21.30;99.90;22.40;101872.00;;;;6309778;22;20656;-69
2023/10/09 10:04:11;;;;;;;0.50;0.50;;;20.50;99.90;22.40;101883.00;;;;6314625;22;20210;-68
2023/10/09 10:07:03;;;;;;;3.42;3.13;;;20.20;99.90;21.90;101881.00;;;;6285920;22;20659;-68
2023/10/09 10:09:54;;;;;;;11.55;4.93;;;19.80;99.90;22.40;101897.00;;;;6287571;22;20156;-69
2023/10/09 10:13:04;;;;;;;5.43;4.93;;;19.90;99.90;23.60;101913.00;;;;6286880;22;20155;-71
2023/10/09 10:15:57;;;;;;;3.70;2.20;;;20.20;99.90;23.70;101920.00;;;;6338496;22;20476;-70
2023/10/09 10:18:35;;;;;;;12.75;7.32;;;20.70;99.90;23.10;101904.00;;;;6311505;22;20187;-70
2023/10/09 10:33:54;;;;;;;4.65;2.90;;;19.70;99.90;23.90;101931.00;;;;5090272;27;20567;-69
2023/10/09 10:36:29;;;;;;;2.08;1.27;;;20.40;99.90;22.90;101934.00;;;;5070284;28;20189;-70
2023/10/09 10:39:42;;;;;;;2.45;2.25;;;20.40;99.90;23.20;101908.00;;;;5056568;28;20189;-69
2023/10/09 10:42:33;;;;;;;1.75;1.65;;;20.40;99.90;23.40;101916.00;;;;5068404;28;20246;-69
2023/10/09 10:45:34;;;;;;;2.20;0.98;;;20.50;99.90;23.90;101908.00;;;;5070991;28;20197;-70
2023/10/09 10:47:58;;;;;;;0.93;0.90;;;20.80;99.90;25.30;101943.00;;;;5068651;28;20204;-67
2023/10/09 10:53:19;;;;;;;3.03;2.72;;;21.40;99.90;23.50;101915.00;;;;5068471;28;20245;-67
2023/10/09 10:57:22;;;;;;;0.88;0.52;;;21.00;99.90;23.30;101922.00;;;;5070976;28;20196;-67
2023/10/09 11:01:11;;;;;;;1.13;1.05;;;20.50;99.90;25.60;101959.00;;;;5068711;28;20590;-67
2023/10/09 11:03:19;;;;;;;0.10;0.10;;;21.50;99.90;26.20;101965.00;;;;5068386;28;20295;-67
2023/10/09 11:06:49;;;;;;;0.10;0.10;;;22.30;99.90;26.90;101982.00;;;;5067186;28;20182;-68
2023/10/09 11:15:44;;;;;;;0.10;0.10;;;23.10;99.90;27.40;102009.00;;;;5067505;28;20224;-68
2023/10/09 11:18:48;;;;;;;4.40;4.00;;;23.30;99.90;25.20;102004.00;;;;5068336;28;20186;-68
2023/10/09 11:22:24;;;;;;;2.17;2.08;;;22.80;99.90;25.70;101966.00;;;;5068754;28;20631;-68
2023/10/09 11:25:50;;;;;;;1.25;1.25;;;22.10;99.90;24.70;101952.00;;;;5056642;28;20197;-68
2023/10/09 11:28:57;;;;;;;11.48;7.80;;;21.90;99.90;24.10;101943.00;;;;5068159;28;20178;-68
2023/10/09 11:32:19;;;;;;;3.88;3.22;;;21.70;99.90;25.20;101941.00;;;;5066379;28;20225;-68
2023/10/09 11:35:19;;;;;;;0.10;0.10;;;21.50;99.90;26.00;101953.00;;;;5063511;28;20181;-68
2023/10/09 11:37:56;;;;;;;3.20;1.55;;;22.10;99.90;24.50;101946.00;;;;5058362;28;20229;-69
2023/10/09 11:43:54;;;;;;;4.70;3.88;;;22.40;99.90;26.10;101953.00;;;;5043350;28;20198;-69
2023/10/09 11:52:04;;;;;;;0.90;0.90;;;23.40;99.90;27.40;102033.00;;;;5053969;28;20240;-71
2023/10/09 11:54:33;;;;;;;1.20;1.10;;;23.50;99.90;28.20;102043.00;;;;5054201;28;20218;-70
2023/10/09 11:57:28;;;;;;;0.10;0.10;;;23.80;99.90;28.40;102057.00;;;;5039795;28;20639;-70
2023/10/09 11:59:54;;;;;;;0.80;0.50;;;23.90;99.90;28.10;102070.00;;;;5053430;28;20182;-70
2023/10/09 12:02:28;;;;;;;0.10;0.10;;;24.00;99.90;28.50;102066.00;;;;5057038;28;20546;-70
2023/10/09 12:04:57;;;;;;;0.32;0.32;;;24.20;99.90;29.00;102068.00;;;;5050903;28;20534;-70
2023/10/09 12:07:55;;;;;;;0.50;0.50;;;24.40;99.90;28.90;102062.00;;;;5055904;28;20199;-69
2023/10/09 12:10:26;;;;;;;0.17;0.17;;;24.60;99.90;28.50;102081.00;;;;5048954;28;20186;-69
2023/10/09 12:12:53;;;;;;;0.20;0.20;;;24.50;99.90;28.50;102081.00;;;;5053804;28;20275;-69
2023/10/09 12:15:20;;;;;;;0.10;0.10;;;24.40;99.90;28.80;102075.00;;;;5053769;28;20663;-69
2023/10/09 12:17:49;;;;;;;1.60;1.42;;;24.50;99.90;29.20;102075.00;;;;5053807;28;20228;-69
2023/10/09 12:20:32;;;;;;;0.55;0.55;;;24.70;99.90;29.20;102070.00;;;;5053925;28;20178;-69
2023/10/09 12:23:20;;;;;;;3.63;2.95;;;24.70;99.90;27.80;102087.00;;;;5045339;28;20170;-67
2023/10/09 12:25:56;;;;;;;0.80;0.80;;;24.40;99.90;27.00;102045.00;;;;5052275;28;20428;-69
2023/10/09 12:28:35;;;;;;;2.75;1.65;;;23.60;99.90;27.30;102048.00;;;;5054798;28;20431;-69
2023/10/09 12:31:03;;;;;;;0.20;0.20;;;23.50;99.90;27.70;102049.00;;;;5041754;28;20194;-69
2023/10/09 12:33:30;;;;;;;2.13;1.98;;;23.60;99.90;28.20;102046.00;;;;5054725;28;20209;-69
2023/10/09 12:36:04;;;;;;;0.35;0.20;;;23.90;99.90;27.50;102027.00;;;;5052914;28;20705;-69
2023/10/09 12:38:38;;;;;;;0.50;0.50;;;23.70;99.90;28.20;102040.00;;;;5052715;28;20188;-68
2023/10/09 12:41:19;;;;;;;3.53;2.03;;;23.80;99.90;28.50;102042.00;;;;5043379;28;20181;-69
2023/10/09 12:44:11;;;;;;;0.10;0.10;;;24.10;99.90;28.70;102052.00;;;;5053779;28;20202;-69
2023/10/09 12:46:53;;;;;;;7.00;3.42;;;24.20;99.90;27.20;102036.00;;;;5050922;28;20728;-67
2023/10/09 12:49:25;;;;;;;2.92;2.72;;;23.60;99.90;26.00;102028.00;;;;5053824;28;20166;-69
2023/10/09 12:52:15;;;;;;;8.02;5.10;;;23.00;99.90;24.80;101938.00;;;;5043928;28;20237;-69
2023/10/09 12:54:52;;;;;;;0.63;0.63;;;22.10;99.90;24.80;101901.00;;;;5052630;28;20277;-69
2023/10/09 12:57:25;;;;;;;0.20;0.20;;;21.70;99.90;25.90;101930.00;;;;5051726;28;20545;-69
2023/10/09 13:00:03;;;;;;;0.40;0.40;;;22.10;99.90;26.70;101958.00;;;;5037887;28;20195;-70
2023/10/09 13:03:13;;;;;;;2.53;0.80;;;22.50;99.90;27.60;101986.00;;;;5048287;28;20602;-67
2023/10/09 13:06:44;;;;;;;7.07;3.80;;;23.10;99.90;26.40;101999.00;;;;4978853;28;20200;-67
2023/10/09 13:09:42;;;;;;;2.78;2.50;;;23.20;99.90;24.50;101949.00;;;;5036998;28;20332;-69
2023/10/09 13:12:55;;;;;;;7.97;5.10;;;22.60;99.90;24.80;101899.00;;;;5047407;28;20201;-69
2023/10/09 13:15:42;;;;;;;0.40;0.40;;;21.80;99.90;26.50;101927.00;;;;5051139;28;20193;-69
2023/10/09 13:18:56;;;;;;;7.97;2.35;;;22.50;99.90;25.50;101926.00;;;;5035873;28;20186;-69
2023/10/09 13:22:30;;;;;;;2.42;2.22;;;22.60;99.90;25.80;101920.00;;;;5048190;28;20219;-70
2023/10/09 13:25:32;;;;;;;0.10;0.10;;;22.40;99.90;26.40;101918.00;;;;5048339;28;20204;-70
2023/10/09 13:28:40;;;;;;;2.00;1.88;;;22.50;99.90;26.00;101925.00;;;;5064120;28;20614;-69
2023/10/09 13:31:52;;;;;;;0.40;0.40;;;22.50;99.90;27.10;101958.00;;;;5036724;28;20190;-68
2023/10/09 13:35:14;;;;;;;4.53;2.20;;;23.00;99.90;26.40;101963.00;;;;5052258;28;20186;-68
2023/10/09 13:38:27;;;;;;;4.15;3.92;;;23.00;99.90;27.70;101952.00;;;;5033130;28;20289;-68
2023/10/09 13:41:12;;;;;;;0.38;0.38;;;23.20;99.90;27.90;101964.00;;;;5051586;28;20193;-68
2023/10/09 13:44:01;;;;;;;0.30;0.30;;;23.40;99.90;27.70;101987.00;;;;5045089;28;20198;-68
2023/10/09 13:46:51;;;;;;;0.10;0.10;;;23.40;99.90;27.80;101988.00;;;;5048245;28;20186;-67
2023/10/09 13:49:23;;;;;;;0.10;0.10;;;23.60;99.90;28.00;101992.00;;;;5052191;28;20763;-68
2023/10/09 13:51:56;;;;;;;7.88;3.80;;;23.60;99.90;27.30;101993.00;;;;5052623;28;20687;-68
2023/10/09 13:57:09;;;;;;;0.15;0.15;;;23.60;99.90;28.00;101978.00;;;;5051883;28;20194;-69
2023/10/09 13:59:51;;;;;;;0.10;0.10;;;23.80;99.90;28.20;101992.00;;;;5053022;28;20644;-69
2023/10/09 14:02:33;;;;;;;3.40;1.50;;;23.90;99.90;26.10;101970.00;;;;5043670;28;20243;-69
2023/10/09 14:05:08;;;;;;;10.63;3.00;;;23.20;99.90;25.00;101920.00;;;;5048753;28;20185;-69
2023/10/09 14:07:39;;;;;;;4.65;4.25;;;22.50;99.90;25.20;101902.00;;;;5051724;28;20211;-68
2023/10/09 14:10:30;;;;;;;1.55;1.10;;;22.20;99.90;25.00;101908.00;;;;5061163;28;20191;-68
2023/10/09 14:13:34;;;;;;;5.80;2.85;;;22.10;99.90;24.80;101902.00;;;;5053031;28;20276;-69
2023/10/09 14:16:23;;;;;;;1.17;1.17;;;21.80;99.90;25.20;101902.00;;;;5032260;28;20273;-71
2023/10/09 14:19:47;;;;;;;0.80;0.80;;;21.80;99.90;24.80;101892.00;;;;5058425;28;20178;-70
2023/10/09 14:23:20;;;;;;;0.82;0.82;;;22.00;99.90;24.50;101882.00;;;;5046192;28;20182;-70
2023/10/09 14:26:38;;;;;;;0.68;0.57;;;21.60;99.90;25.20;101899.00;;;;5057523;28;20178;-70
2023/10/09 14:29:42;;;;;;;12.18;6.05;;;21.90;99.90;25.30;101904.00;;;;5051663;28;20261;-70
2023/10/09 14:32:51;;;;;;;0.13;0.13;;;22.40;99.90;26.70;101905.00;;;;5050651;28;20241;-70
2023/10/09 14:36:14;;;;;;;0.22;0.22;;;22.60;99.90;25.00;101880.00;;;;5053201;28;20232;-70
2023/10/09 14:39:26;;;;;;;0.40;0.40;;;22.30;99.90;24.30;101870.00;;;;5036778;28;20186;-70
2023/10/09 14:43:08;;;;;;;0.57;0.57;;;21.70;99.90;25.40;101872.00;;;;5050927;28;20213;-70
2023/10/09 14:46:25;;;;;;;1.45;1.45;;;21.90;99.90;24.30;101861.00;;;;5046397;28;20198;-70
2023/10/09 14:49:34;;;;;;;2.28;2.17;;;21.80;99.90;24.70;101855.00;;;;5042257;28;20189;-70
2023/10/09 14:52:45;;;;;;;7.57;6.25;;;21.70;99.90;24.10;101848.00;;;;5036907;28;20222;-70
2023/10/09 14:55:35;;;;;;;4.22;3.85;;;21.40;99.90;24.10;101849.00;;;;5044379;28;20779;-70
2023/10/09 14:58:11;;;;;;;4.82;3.22;;;21.40;99.90;24.90;101851.00;;;;5051128;28;20189;-70
2023/10/09 15:00:46;;;;;;;2.38;2.17;;;21.50;99.90;24.50;101857.00;;;;5052347;28;20656;-70
2023/10/09 15:03:14;;;;;;;1.40;1.40;;;21.60;99.90;24.60;101862.00;;;;5034077;28;20237;-70
2023/10/09 15:05:43;;;;;;;0.68;0.47;;;21.60;99.90;24.20;101869.00;;;;5048147;28;20206;-70
2023/10/09 15:08:10;;;;;;;22.88;2.55;;;21.60;99.90;24.50;101870.00;;;;5052281;28;20269;-70
2023/10/09 15:11:06;;;;;;;1.73;1.63;;;21.50;99.90;25.10;101870.00;;;;5050827;28;20206;-70
2023/10/09 15:13:42;;;;;;;3.20;2.17;;;21.70;99.90;26.10;101882.00;;;;5033748;28;20312;-70
2023/10/09 15:16:56;;;;;;;0.55;0.55;;;22.10;99.90;24.70;101858.00;;;;5046522;28;20553;-70
2023/10/09 15:19:33;;;;;;;0.95;0.95;;;21.80;99.90;24.80;101838.00;;;;5067528;28;20197;-71
2023/10/09 15:22:21;;;;;;;0.40;0.40;;;21.70;99.90;26.30;101881.00;;;;5054089;28;20197;-71
2023/10/09 15:25:30;;;;;;;1.80;1.65;;;22.20;99.90;25.30;101893.00;;;;5055108;28;20324;-71
2023/10/09 15:27:59;;;;;;;0.90;0.90;;;22.30;99.90;25.30;101884.00;;;;5049704;28;20236;-71
2023/10/09 15:30:59;;;;;;;13.45;2.83;;;22.20;99.90;24.80;101869.00;;;;5065986;28;20175;-71
2023/10/09 15:33:30;;;;;;;6.38;2.25;;;21.90;99.90;24.60;101869.00;;;;5056420;28;20230;-71
2023/10/09 15:35:59;;;;;;;1.92;1.85;;;21.80;99.90;24.80;101857.00;;;;5051376;28;20632;-71
2023/10/09 15:38:28;;;;;;;0.52;0.43;;;21.70;99.90;24.90;101870.00;;;;5051837;28;20229;-71
2023/10/09 15:41:34;;;;;;;0.20;0.20;;;21.70;99.90;26.00;101885.00;;;;5061113;28;20590;-71
2023/10/09 15:44:05;;;;;;;10.93;2.95;;;22.10;99.90;26.10;101889.00;;;;5066582;28;20264;-72
2023/10/09 15:47:03;;;;;;;2.75;1.55;;;22.30;99.90;25.20;101873.00;;;;5041603;28;20599;-72
2023/10/09 15:50:11;;;;;;;1.85;1.55;;;22.20;99.90;25.10;101851.00;;;;5055340;28;20632;-71
2023/10/09 15:52:37;;;;;;;0.15;0.15;;;22.00;99.90;26.00;101879.00;;;;5054187;28;20201;-70
2023/10/09 15:55:13;;;;;;;3.97;2.42;;;22.10;99.90;25.60;101875.00;;;;5056023;28;20563;-71
2023/10/09 15:57:41;;;;;;;0.20;0.20;;;22.00;99.90;26.30;101886.00;;;;5048786;28;20683;-71
2023/10/09 16:00:18;;;;;;;3.03;0.63;;;22.30;99.90;26.60;101906.00;;;;5070882;28;20217;-71
2023/10/09 16:02:52;;;;;;;0.32;0.32;;;22.50;99.90;26.70;101913.00;;;;5053709;28;20288;-69
2023/10/09 16:08:44;;;;;;;0.73;0.73;;;22.10;99.90;25.80;101890.00;;;;5054529;28;20190;-70
2023/10/09 16:11:25;;;;;;;4.78;2.47;;;22.00;99.90;25.90;101907.00;;;;5044056;28;20198;-70
2023/10/09 16:13:56;;;;;;;2.35;1.58;;;22.20;99.90;25.30;101895.00;;;;5056744;28;20192;-70
2023/10/09 16:16:45;;;;;;;2.60;1.85;;;21.90;99.90;25.20;101875.00;;;;5057888;28;20239;-70
2023/10/09 16:19:20;;;;;;;0.20;0.20;;;21.80;99.90;26.10;101888.00;;;;5052882;28;20194;-70
2023/10/09 16:21:52;;;;;;;5.82;3.63;;;22.00;99.90;25.30;101896.00;;;;5054253;28;20189;-70
2023/10/09 16:24:46;;;;;;;0.10;0.10;;;21.90;99.90;26.10;101891.00;;;;5056483;28;20244;-70
2023/10/09 16:27:39;;;;;;;1.35;1.27;;;22.00;99.90;25.60;101893.00;;;;5047304;28;20179;-71
2023/10/09 16:30:12;;;;;;;0.50;0.50;;;21.90;99.90;26.40;101917.00;;;;5065680;28;20190;-71
2023/10/09 16:33:00;;;;;;;0.10;0.10;;;22.10;99.90;26.00;101937.00;;;;5049408;28;20269;-71
2023/10/09 16:35:54;;;;;;;0.20;0.20;;;22.20;99.90;26.10;101907.00;;;;5065308;28;20190;-71
2023/10/09 16:38:22;;;;;;;0.20;0.20;;;22.00;99.90;26.10;101943.00;;;;5053669;28;20193;-71
2023/10/09 16:40:56;;;;;;;0.20;0.20;;;22.00;99.90;26.60;101949.00;;;;5066771;28;20221;-71
2023/10/09 16:43:27;;;;;;;0.20;0.20;;;22.20;99.90;26.70;101964.00;;;;5053339;28;20198;-70
2023/10/09 16:46:13;;;;;;;0.20;0.20;;;22.30;99.90;26.70;101967.00;;;;5043620;28;20193;-69
2023/10/09 16:48:40;;;;;;;0.20;0.20;;;22.30;99.90;26.20;101971.00;;;;5066955;28;20222;-70
2023/10/09 16:51:47;;;;;;;0.20;0.20;;;22.20;99.90;26.20;101967.00;;;;5069444;28;20621;-69
2023/10/09 16:54:17;;;;;;;0.30;0.30;;;22.10;99.90;26.00;101957.00;;;;5050272;28;20208;-70
2023/10/09 16:57:23;;;;;;;0.20;0.20;;;21.90;99.90;24.90;101945.00;;;;5060780;28;20199;-70
2023/10/09 17:00:34;;;;;;;0.20;0.20;;;21.50;99.90;25.40;101944.00;;;;5049378;28;20198;-69
2023/10/09 17:03:27;;;;;;;0.20;0.20;;;21.30;99.90;25.70;101946.00;;;;5053173;28;20186;-69
2023/10/09 17:06:06;;;;;;;0.20;0.20;;;21.40;99.90;25.70;101932.00;;;;5036990;28;20197;-70
2023/10/09 17:08:46;;;;;;;0.20;0.20;;;21.50;99.90;25.50;101947.00;;;;5043863;28;20548;-69
2023/10/09 17:11:41;;;;;;;0.20;0.20;;;21.40;99.90;25.20;101953.00;;;;5048573;28;20265;-69
2023/10/09 17:14:25;;;;;;;0.38;0.38;;;21.20;99.90;24.10;101917.00;;;;5058767;28;20657;-70
2023/10/09 17:17:15;;;;;;;0.93;0.93;;;20.70;99.90;23.80;101908.00;;;;5044977;28;20209;-69
2023/10/09 17:20:26;;;;;;;0.20;0.20;;;20.50;99.90;23.80;101905.00;;;;5042849;28;20201;-69
2023/10/09 17:23:50;;;;;;;0.20;0.20;;;20.50;99.90;24.80;101917.00;;;;5045582;28;20541;-69
2023/10/09 17:27:04;;;;;;;0.20;0.20;;;20.60;99.90;24.90;101926.00;;;;5051248;28;20201;-69
2023/10/09 17:29:57;;;;;;;0.20;0.20;;;20.70;99.90;25.20;101931.00;;;;5045905;28;20182;-69
2023/10/09 17:32:51;;;;;;;0.20;0.20;;;20.80;99.90;24.90;101923.00;;;;5050155;28;20271;-70
2023/10/09 17:35:55;;;;;;;0.20;0.20;;;20.70;99.90;24.20;101930.00;;;;5049738;28;20194;-70
2023/10/09 17:38:52;;;;;;;0.20;0.20;;;20.60;99.90;24.00;101892.00;;;;5052695;28;20257;-69
2023/10/09 17:41:22;;;;;;;0.20;0.20;;;20.20;99.90;24.10;101910.00;;;;5032166;28;20277;-69
2023/10/09 17:43:50;;;;;;;0.20;0.20;;;20.20;99.90;23.60;101912.00;;;;5050293;28;20239;-69
2023/10/09 17:46:51;;;;;;;0.20;0.20;;;20.10;99.90;23.90;101880.00;;;;5050120;28;20194;-70
2023/10/09 17:49:26;;;;;;;0.30;0.30;;;20.00;99.90;23.60;101911.00;;;;5051644;28;20546;-70
2023/10/09 17:51:54;;;;;;;0.20;0.20;;;20.00;99.90;23.60;101914.00;;;;5052668;28;20220;-70
2023/10/09 17:54:34;;;;;;;0.20;0.20;;;19.80;99.90;23.80;101919.00;;;;5050094;28;20182;-69
2023/10/09 17:57:27;;;;;;;0.20;0.20;;;19.70;99.90;24.20;101921.00;;;;5049067;28;20194;-69
2023/10/09 18:00:36;;;;;;;0.22;0.22;;;19.90;99.90;24.10;101923.00;;;;5052829;28;20698;-69
2023/10/09 18:03:28;;;;;;;1.23;1.23;;;20.00;99.90;24.00;101899.00;;;;5051764;28;20218;-69
2023/10/09 18:06:34;;;;;;;0.20;0.20;;;19.90;99.90;23.50;101916.00;;;;5031530;28;20182;-70
2023/10/09 18:09:41;;;;;;;0.30;0.30;;;19.70;99.90;23.20;101914.00;;;;5044526;28;20190;-69
2023/10/09 18:12:59;;;;;;;0.30;0.30;;;19.50;99.90;23.70;101915.00;;;;5043483;28;20217;-70
2023/10/09 18:15:44;;;;;;;0.20;0.20;;;19.50;99.90;24.00;101935.00;;;;5063055;28;20189;-70
2023/10/09 18:18:31;;;;;;;0.30;0.30;;;19.60;99.90;23.30;101898.00;;;;5051384;28;20181;-69
2023/10/09 18:21:20;;;;;;;0.20;0.20;;;19.60;99.90;23.80;101899.00;;;;5051905;28;20264;-69
2023/10/09 18:24:26;;;;;;;0.20;0.20;;;19.60;99.90;23.60;101921.00;;;;5051613;28;20712;-69
2023/10/09 18:27:14;;;;;;;0.30;0.30;;;19.60;99.90;23.70;101928.00;;;;5036782;28;20201;-70
2023/10/09 18:32:50;;;;;;;1.40;1.30;;;19.40;99.90;23.00;101917.00;;;;5060618;28;20610;-70
2023/10/09 18:35:22;;;;;;;0.30;0.30;;;19.30;99.90;22.90;101924.00;;;;5060009;28;20690;-70
2023/10/09 18:37:50;;;;;;;0.30;0.30;;;19.20;99.90;23.20;101936.00;;;;5061312;28;20181;-70
2023/10/09 18:40:20;;;;;;;0.20;0.20;;;19.10;99.90;23.20;101929.00;;;;5062030;28;20271;-70
2023/10/09 18:42:49;;;;;;;0.30;0.30;;;19.10;99.90;23.30;101922.00;;;;5058970;28;20283;-70
2023/10/09 18:45:42;;;;;;;0.30;0.30;;;19.10;99.90;23.30;101921.00;;;;5059261;28;20310;-70
2023/10/09 18:48:11;;;;;;;0.30;0.30;;;19.10;99.90;23.40;101894.00;;;;5060192;28;20189;-70
2023/10/09 18:50:55;;;;;;;0.60;0.60;;;19.10;99.90;23.10;101911.00;;;;5060005;28;20269;-70
2023/10/09 18:53:21;;;;;;;0.60;0.60;;;19.10;99.90;23.20;101926.00;;;;5061032;28;20283;-70
2023/10/09 18:55:50;;;;;;;0.30;0.30;;;19.10;99.90;23.50;101936.00;;;;5057861;28;20284;-70
2023/10/09 18:58:36;;;;;;;0.30;0.30;;;19.20;99.90;23.20;101916.00;;;;5067827;28;20186;-70
2023/10/09 19:01:24;;;;;;;0.30;0.30;;;19.20;99.90;23.50;101930.00;;;;5055000;28;20240;-69
2023/10/09 19:04:08;;;;;;;0.30;0.30;;;19.30;99.90;23.00;101930.00;;;;5048415;28;20213;-69
2023/10/09 19:06:57;;;;;;;0.30;0.30;;;19.20;99.90;22.80;101902.00;;;;5053972;28;20682;-69
2023/10/09 19:09:23;;;;;;;1.13;1.13;;;18.90;99.90;22.60;101927.00;;;;5055467;28;20258;-69
2023/10/09 19:12:10;;;;;;;0.40;0.40;;;18.70;99.90;22.50;101899.00;;;;5069013;28;20208;-69
2023/10/09 19:15:06;;;;;;;0.30;0.30;;;18.60;99.90;22.20;101921.00;;;;5050012;28;20183;-69
2023/10/09 19:17:41;;;;;;;0.30;0.30;;;18.40;99.90;22.10;101919.00;;;;5054945;28;20197;-69
2023/10/09 19:20:16;;;;;;;0.40;0.40;;;18.30;99.90;22.10;101928.00;;;;5045725;28;20278;-70
2023/10/09 19:23:00;;;;;;;0.30;0.30;;;18.20;99.90;21.80;101896.00;;;;5049370;28;20662;-69
2023/10/09 19:25:48;;;;;;;0.30;0.30;;;18.10;99.90;22.20;101918.00;;;;5055972;28;20283;-69
2023/10/09 19:28:33;;;;;;;0.40;0.40;;;18.10;99.90;22.70;101927.00;;;;5044044;28;20194;-70
2023/10/09 19:31:53;;;;;;;0.37;0.37;;;18.50;99.90;22.60;101924.00;;;;5050186;28;20195;-70
2023/10/09 19:34:38;;;;;;;0.40;0.40;;;18.30;99.90;22.80;101921.00;;;;5040422;28;20269;-70
2023/10/09 19:37:42;;;;;;;0.40;0.40;;;18.70;99.90;22.00;101878.00;;;;5056048;28;20185;-70
2023/10/09 19:40:48;;;;;;;0.50;0.50;;;18.40;99.90;22.30;101914.00;;;;5061913;28;20316;-70
2023/10/09 19:43:16;;;;;;;0.53;0.53;;;18.20;99.90;21.60;101884.00;;;;5061249;28;20189;-69
2023/10/09 19:46:04;;;;;;;0.50;0.50;;;18.10;99.90;21.50;101916.00;;;;5060253;28;20191;-78
2023/10/09 19:48:50;;;;;;;0.30;0.30;;;17.80;99.90;21.50;101917.00;;;;5063775;28;20212;-70
2023/10/09 19:51:54;;;;;;;0.30;0.30;;;17.60;99.90;21.80;101910.00;;;;5061462;28;20205;-70
2023/10/09 19:54:25;;;;;;;0.40;0.40;;;17.70;99.90;22.20;101928.00;;;;5063230;28;20193;-70
2023/10/09 19:57:13;;;;;;;0.40;0.40;;;17.90;99.90;22.50;101936.00;;;;5063326;28;20188;-69
2023/10/09 19:59:39;;;;;;;0.30;0.30;;;18.30;99.90;22.10;101921.00;;;;5078659;28;20182;-69
2023/10/09 20:02:06;;;;;;;0.40;0.40;;;18.30;99.90;21.60;101916.00;;;;5063198;28;20178;-70
2023/10/09 20:04:50;;;;;;;0.40;0.40;;;18.20;99.90;21.40;101904.00;;;;5061993;28;20328;-70
2023/10/09 20:07:19;;;;;;;0.40;0.40;;;17.70;99.90;20.80;101891.00;;;;5063307;28;20187;-69
2023/10/09 20:09:45;;;;;;;0.40;0.40;;;17.40;99.90;21.60;101889.00;;;;5063572;28;20191;-69
2023/10/09 20:12:29;;;;;;;0.40;0.40;;;17.60;99.90;21.60;101901.00;;;;5063671;28;20205;-69
2023/10/09 20:15:13;;;;;;;0.30;0.30;;;17.60;99.90;21.40;101898.00;;;;5063496;28;20220;-69
2023/10/09 20:17:56;;;;;;;0.50;0.50;;;17.50;99.90;21.90;101880.00;;;;5061363;28;20227;-69
2023/10/09 20:20:45;;;;;;;1.17;1.10;;;17.60;99.90;21.30;101893.00;;;;5062712;28;20209;-69
2023/10/09 20:23:20;;;;;;;0.93;0.93;;;17.80;99.90;20.70;101885.00;;;;5060166;28;20200;-69
2023/10/09 20:26:22;;;;;;;0.40;0.40;;;17.40;99.90;20.80;101861.00;;;;5061282;28;20266;-69
2023/10/09 20:29:14;;;;;;;0.40;0.40;;;17.20;99.90;20.40;101874.00;;;;5063523;28;20195;-69
2023/10/09 20:31:57;;;;;;;0.50;0.50;;;17.00;99.90;21.00;101879.00;;;;5062509;28;20207;-69